Terminal Aerodrome Forecast
Issued by NWS

Home | Current Version | Previous Version | Text Only | Print | Product List | Glossary On
Versions: 1 2 3 4 5 6 7 8 9 10 11 12 13 14
000
FTUS44 KLZK 191700
TAFHRO
TAF
KHRO 191737Z 1918/2018 14008KT P6SM SCT050 SCT250
     FM200000 14004KT P6SM SCT250
     FM201400 15008KT P6SM BKN250=

USA.gov is the U.S. government's official web portal to all federal, state and local government web resources and services.